createdAt,value
2019-05-18T00:02:09.484Z,10.73
2019-05-18T00:07:15.049Z,10.54
2019-05-18T00:12:21.327Z,10.57
2019-05-18T00:17:28.356Z,10.51
2019-05-18T00:22:33.801Z,10.39
2019-05-18T00:27:40.860Z,10.36
2019-05-18T00:32:46.374Z,10.15
2019-05-18T00:37:57.344Z,10.21
2019-05-18T00:43:03.027Z,10.17
2019-05-18T00:48:12.175Z,10.07
2019-05-18T00:53:18.601Z,9.99
2019-05-18T00:58:26.226Z,9.88
2019-05-18T01:08:35.448Z,9.90
2019-05-18T01:13:40.998Z,9.86
2019-05-18T01:18:46.533Z,9.73
2019-05-18T01:23:52.017Z,9.76
2019-05-18T01:29:03.069Z,9.84
2019-05-18T01:34:15.026Z,9.77
2019-05-18T01:39:21.259Z,9.64
2019-05-18T01:44:28.602Z,9.52
2019-05-18T01:49:34.072Z,9.42
2019-05-18T01:54:40.724Z,9.36
2019-05-18T01:59:46.536Z,9.17
2019-05-18T02:04:52.148Z,9.12
2019-05-18T02:09:57.617Z,9.08
2019-05-18T02:15:03.536Z,9.22
2019-05-18T02:20:10.256Z,8.98
2019-05-18T02:25:16.466Z,8.79
2019-05-18T02:30:22.027Z,8.74
2019-05-18T02:35:29.053Z,8.85
2019-05-18T02:40:35.504Z,8.87
2019-05-18T02:45:41.184Z,8.66
2019-05-18T02:50:48.720Z,8.89
2019-05-18T02:55:55.195Z,8.65
2019-05-18T03:01:01.731Z,8.60
2019-05-18T03:06:09.350Z,8.52
2019-05-18T03:11:14.989Z,8.62
2019-05-18T03:16:20.560Z,8.63
2019-05-18T03:21:28.499Z,8.54
2019-05-18T03:26:36.450Z,8.90
2019-05-18T03:31:41.973Z,8.60
2019-05-18T03:36:48.223Z,8.23
2019-05-18T03:41:55.000Z,8.51
2019-05-18T03:47:03.725Z,8.37
2019-05-18T03:52:12.333Z,8.63
2019-05-18T03:57:17.812Z,8.69
2019-05-18T04:02:24.513Z,8.53
2019-05-18T04:07:29.971Z,8.82
2019-05-18T04:12:35.517Z,9.23
2019-05-18T04:17:41.007Z,10.33
2019-05-18T04:22:49.032Z,11.47
2019-05-18T04:27:55.839Z,11.41
2019-05-18T04:33:01.412Z,12.19
2019-05-18T04:38:11.639Z,12.55
2019-05-18T04:43:17.438Z,12.12
2019-05-18T04:48:22.981Z,12.53
2019-05-18T04:53:28.879Z,11.43
2019-05-18T04:58:35.272Z,11.73
2019-05-18T05:03:40.893Z,11.85
2019-05-18T05:08:46.328Z,11.63
2019-05-18T05:13:51.847Z,11.86
2019-05-18T05:18:58.471Z,11.92
2019-05-18T05:24:05.667Z,11.98
2019-05-18T05:29:11.211Z,11.95
2019-05-18T05:34:16.758Z,11.99
2019-05-18T05:39:27.907Z,12.19
2019-05-18T05:44:33.603Z,12.38
2019-05-18T05:49:39.151Z,12.58
2019-05-18T05:54:44.980Z,12.72
2019-05-18T05:59:50.607Z,12.99
2019-05-18T06:04:57.816Z,13.81
2019-05-18T06:10:03.502Z,14.52
2019-05-18T06:15:09.803Z,14.54
2019-05-18T06:20:25.971Z,14.39
2019-05-18T06:25:34.406Z,14.88
2019-05-18T06:30:40.569Z,15.58
2019-05-18T06:35:46.030Z,15.73
2019-05-18T06:40:53.568Z,15.75
2019-05-18T06:45:59.220Z,16.15
2019-05-18T06:51:07.722Z,15.82
2019-05-18T06:56:14.488Z,16.36
2019-05-18T07:01:21.620Z,16.08
2019-05-18T07:06:27.165Z,16.30
2019-05-18T07:11:32.705Z,16.63
2019-05-18T07:16:38.305Z,17.25
2019-05-18T07:21:44.929Z,17.02
2019-05-18T07:26:55.449Z,16.89
2019-05-18T07:32:01.854Z,17.52
2019-05-18T07:37:09.128Z,17.40
2019-05-18T07:42:14.741Z,17.31
2019-05-18T07:47:22.597Z,17.70
2019-05-18T07:52:28.164Z,17.26
2019-05-18T07:57:34.430Z,17.06
2019-05-18T08:02:39.989Z,16.66
2019-05-18T08:07:48.888Z,17.15
2019-05-18T08:12:55.171Z,17.75
2019-05-18T08:18:04.590Z,17.41
2019-05-18T08:23:12.022Z,18.00
2019-05-18T08:28:18.257Z,18.45
2019-05-18T08:33:25.931Z,17.74
2019-05-18T08:38:33.032Z,18.51
2019-05-18T08:43:38.516Z,18.41
2019-05-18T08:48:44.755Z,18.25
2019-05-18T08:53:51.435Z,18.58
2019-05-18T08:58:57.876Z,18.15
2019-05-18T09:04:07.870Z,17.60
2019-05-18T09:09:13.582Z,18.16
2019-05-18T09:14:19.115Z,17.99
2019-05-18T09:19:24.762Z,18.68
2019-05-18T09:24:30.251Z,19.16
2019-05-18T09:29:35.820Z,19.35
2019-05-18T09:34:41.421Z,18.72
2019-05-18T09:39:47.022Z,18.85
2019-05-18T09:44:54.582Z,19.26
2019-05-18T09:50:00.252Z,19.38
2019-05-18T09:55:06.957Z,19.26
2019-05-18T10:00:15.229Z,19.16
2019-05-18T10:05:22.614Z,18.66
2019-05-18T10:10:28.140Z,19.07
2019-05-18T10:15:33.687Z,19.27
2019-05-18T10:20:39.229Z,19.28
2019-05-18T10:25:44.841Z,18.74
2019-05-18T10:30:50.490Z,18.80
2019-05-18T10:35:56.093Z,19.01
2019-05-18T10:41:02.054Z,19.15
2019-05-18T10:46:09.390Z,19.22
2019-05-18T10:51:15.388Z,19.56
2019-05-18T10:56:20.910Z,19.55
2019-05-18T11:01:26.518Z,19.46
2019-05-18T11:06:32.089Z,19.69
2019-05-18T11:11:40.610Z,19.75
2019-05-18T11:16:45.897Z,19.15
2019-05-18T11:21:52.042Z,19.20
2019-05-18T11:26:59.907Z,19.38
2019-05-18T11:32:05.694Z,19.94
2019-05-18T11:37:11.296Z,19.95
2019-05-18T11:42:16.768Z,19.93
2019-05-18T11:47:22.376Z,20.18
2019-05-18T11:52:28.282Z,19.88
2019-05-18T11:57:33.923Z,20.23
2019-05-18T12:02:39.525Z,20.21
2019-05-18T12:07:45.105Z,19.88
2019-05-18T12:12:50.797Z,20.31
2019-05-18T12:17:56.326Z,20.87
2019-05-18T12:23:02.120Z,20.62
2019-05-18T12:28:07.862Z,21.05
2019-05-18T12:33:13.437Z,21.03
2019-05-18T12:38:19.001Z,21.05
2019-05-18T12:43:24.430Z,20.63
2019-05-18T12:48:32.061Z,21.22
2019-05-18T12:53:38.022Z,21.12
2019-05-18T12:58:43.571Z,20.77
2019-05-18T13:03:49.065Z,21.36
2019-05-18T13:08:54.625Z,21.36
2019-05-18T13:14:00.298Z,21.75
2019-05-18T13:19:08.898Z,21.47
2019-05-18T13:24:14.559Z,21.71
2019-05-18T13:29:20.014Z,21.66
2019-05-18T13:34:25.602Z,21.77
2019-05-18T13:39:31.190Z,21.83
2019-05-18T13:44:38.180Z,21.71
2019-05-18T13:49:44.103Z,21.83
2019-05-18T13:55:03.167Z,22.41
2019-05-18T13:59:59.688Z,21.65
2019-05-18T14:05:08.215Z,22.07
2019-05-18T14:10:14.570Z,22.38
2019-05-18T14:15:22.762Z,21.97
2019-05-18T14:20:27.555Z,22.23
2019-05-18T14:25:33.140Z,21.96
2019-05-18T14:30:38.602Z,21.97
2019-05-18T14:35:48.884Z,22.01
2019-05-18T14:40:54.608Z,22.45
2019-05-18T14:46:01.608Z,22.34
2019-05-18T14:51:07.480Z,22.29
2019-05-18T14:56:15.023Z,22.58
2019-05-18T15:01:20.629Z,22.52
2019-05-18T15:06:28.263Z,22.23
2019-05-18T15:11:33.826Z,22.47
2019-05-18T15:16:39.367Z,22.02
2019-05-18T15:21:44.979Z,22.15
2019-05-18T15:26:50.642Z,22.42
2019-05-18T15:31:56.256Z,22.82
2019-05-18T15:37:04.195Z,22.37
2019-05-18T15:42:10.205Z,22.61
2019-05-18T15:47:16.027Z,22.51
2019-05-18T15:52:21.640Z,22.62
2019-05-18T15:57:27.757Z,22.77
2019-05-18T16:02:33.800Z,22.79
2019-05-18T16:07:39.392Z,22.36
2019-05-18T16:12:46.918Z,22.33
2019-05-18T16:17:55.737Z,22.87
2019-05-18T16:23:01.467Z,23.01
2019-05-18T16:28:08.816Z,22.79
2019-05-18T16:33:14.572Z,22.37
2019-05-18T16:38:20.103Z,22.77
2019-05-18T16:43:26.404Z,22.75
2019-05-18T16:48:39.693Z,22.43
2019-05-18T16:53:49.409Z,22.42
2019-05-18T16:58:52.853Z,21.64
2019-05-18T17:03:58.339Z,21.65
2019-05-18T17:09:06.739Z,22.01
2019-05-18T17:14:13.304Z,21.95
2019-05-18T17:19:21.093Z,21.91
2019-05-18T17:24:28.217Z,21.59
2019-05-18T17:29:33.749Z,21.67
2019-05-18T17:34:39.348Z,21.60
2019-05-18T17:39:46.912Z,21.40
2019-05-18T17:44:52.513Z,21.00
2019-05-18T17:49:58.103Z,21.15
2019-05-18T17:55:04.127Z,20.91
2019-05-18T18:00:12.689Z,20.74
2019-05-18T18:05:18.318Z,20.67
2019-05-18T18:10:23.996Z,20.68
2019-05-18T18:15:29.686Z,20.49
2019-05-18T18:20:35.318Z,20.22
2019-05-18T18:25:41.670Z,20.09
2019-05-18T18:30:47.523Z,20.07
2019-05-18T18:35:53.107Z,19.93
2019-05-18T18:40:58.708Z,19.81
2019-05-18T18:46:09.584Z,19.58
2019-05-18T18:51:16.705Z,19.57
2019-05-18T18:56:23.623Z,19.36
2019-05-18T19:01:31.082Z,19.14
2019-05-18T19:06:39.827Z,18.94
2019-05-18T19:11:47.594Z,18.79
2019-05-18T19:16:53.275Z,18.59
2019-05-18T19:22:00.309Z,18.47
2019-05-18T19:27:06.432Z,18.35
2019-05-18T19:32:18.582Z,18.26
2019-05-18T19:37:19.535Z,18.24
2019-05-18T19:42:25.158Z,17.95
2019-05-18T19:47:33.939Z,17.88
2019-05-18T19:52:41.182Z,18.05
2019-05-18T19:57:47.803Z,17.84
2019-05-18T20:02:57.252Z,17.37
2019-05-18T20:08:03.060Z,17.14
2019-05-18T20:13:10.765Z,17.12
2019-05-18T20:18:16.385Z,16.83
2019-05-18T20:23:23.058Z,16.96
2019-05-18T20:28:29.883Z,16.84
2019-05-18T20:33:38.819Z,16.67
2019-05-18T20:38:46.758Z,16.49
2019-05-18T20:43:54.913Z,16.27
2019-05-18T20:49:00.481Z,16.50
2019-05-18T20:54:08.931Z,16.24
2019-05-18T20:59:14.532Z,16.23
2019-05-18T21:04:20.628Z,16.12
2019-05-18T21:09:29.388Z,15.92
2019-05-18T21:14:40.003Z,15.96
2019-05-18T21:19:46.600Z,15.52
2019-05-18T21:24:52.174Z,15.55
2019-05-18T21:29:57.811Z,15.52
2019-05-18T21:35:03.579Z,15.37
2019-05-18T21:40:11.787Z,15.43
2019-05-18T21:45:22.326Z,15.15
2019-05-18T21:50:27.985Z,15.06
2019-05-18T21:55:36.165Z,14.97
2019-05-18T22:00:42.770Z,14.73
2019-05-18T22:05:49.863Z,14.78
2019-05-18T22:10:55.401Z,14.78
2019-05-18T22:16:00.948Z,14.58
2019-05-18T22:21:07.881Z,14.54
2019-05-18T22:26:15.054Z,14.41
2019-05-18T22:31:20.622Z,14.45
2019-05-18T22:36:26.270Z,14.36
2019-05-18T22:41:34.590Z,14.33
2019-05-18T22:46:40.025Z,14.11
2019-05-18T22:51:45.575Z,14.21
2019-05-18T22:56:51.167Z,14.18
2019-05-18T23:01:56.755Z,14.06
2019-05-18T23:07:02.499Z,14.07
2019-05-18T23:12:08.135Z,14.05
2019-05-18T23:17:13.685Z,14.02
2019-05-18T23:22:19.202Z,13.97
2019-05-18T23:27:27.533Z,13.93
2019-05-18T23:32:33.026Z,13.83
2019-05-18T23:37:38.587Z,13.88
2019-05-18T23:42:44.115Z,13.92
2019-05-18T23:47:53.830Z,13.73
2019-05-18T23:52:59.905Z,13.73
2019-05-18T23:58:06.208Z,13.55
